KCDW/CDW METAR and TAF weather

Enter ICAO airport designator
Station Type Date Time Source
KCDW METAR 2018/07/16 23:53 UTC NOAA

KCDW 162353Z 13005KT 10SM CLR 29/23 A2989 RMK AO2 SLP124 T02940228 10339 20294 56006


Station Type Date Time Source
KCDW Decoded METAR 2018/07/16 23:53 UTC NOAA

CALDWELL ESSEX COUNTY AIRPORT , NJ, United States (KCDW) 40-53N 074-17W 64M
Jul 16, 2018 - 07:53 PM EDT / 2018.07.16 2353 UTC
Wind: from the SE (130 degrees) at 6 MPH (5 KT):0
Visibility: 10 mile(s):0
Sky conditions: clear
Temperature: 84.9 F (29.4 C)
Dew Point: 73.0 F (22.8 C)
Relative Humidity: 67%
Pressure (altimeter): 29.89 in. Hg (1012 hPa)
Pressure tendency: 0.02 inches (0.6 hPa) lower than three hours ago
ob: KCDW 162353Z 13005KT 10SM CLR 29/23 A2989 RMK AO2 SLP124 T02940228 10339 20294 56006
cycle: 0

Station Type Date Time Source
KCDW TAF UTC NOAA

Error!


Example: see airport list